KLGU

Logan-Cache Airport

Logan, Utah, USA
METAR KLGU 191451Z AUTO 35006KT 10SM OVC080 09/M01 A2978 RMK AO2 SLP073 T00891011 53002
Observed Flight Rules
Jan-19 @ 14:51 UTC (33 minutes ago) Visual Flight Rules
Wind Visibility Clouds
350° at 6 knots 10 miles
  • Overcast at 8,000' AGL
Temperatures Readings
Current 9°C / 48°F
Dewpoint -1°C / 30°F
Humidity 50%
Altimeter 29.78" Hg
Pressure 1007.3 hPa
Elevation 1355
METAR KLGU 191451Z AUTO 35006KT 10SM OVC080 09/M01 A2978 RMK AO2 SLP073 T00891011 53002
Observed Flight Rules
Jan-19 @ 14:51 UTC
(33 minutes ago)
VFR
Wind Visibility
350° at 6 knots 10 miles
Clouds
  • Overcast at 8,000' AGL
Temperature Dewpoint
9°C / 48°F -1°C / 30°F
Humidity Altimeter Pressure
50% 29.78" Hg 1007.3 hPa